Terminal Aerodrome Forecast
Issued by NWS

Home | Current Version | Previous Version | Text Only | Print | Product List | Glossary On
Versions: 1 2 3 4 5 6 7 8 9 10 11 12 13 14 15 16 17
000
FTUS42 KRAH 300636 AAA
TAFINT
TAF AMD
KINT 300636Z 3007/3106 02007KT P6SM SCT015 BKN025
      TEMPO 3008/3012 5SM BR BKN015 OVC025
     FM301300 02005KT P6SM SCT015 BKN025
     FM301800 03005KT P6SM VCSH BKN035
     FM310100 VRB03KT P6SM SCT060 SCT100 BKN150=

USA.gov is the U.S. government's official web portal to all federal, state and local government web resources and services.